Time;durP1;ratioP1;P1;durP2;ratioP2;P2;SDS_P1;SDS_P2;PMS_P1;PMS_P2;Temp;Humidity;BMP_temperature;BMP_pressure;BME280_temperature;BME280_humidity;BME280_pressure;Samples;Min_cycle;Max_cycle;Signal;HPM_P1;HPM_P2
2021/04/22 00:01:07;;;;;;;32.40;19.92;;;;;;;3.70;77.40;94478.55;1766548;81;21071;-51
2021/04/22 00:03:35;;;;;;;36.85;24.20;;;;;;;3.72;77.21;94491.14;1766577;81;21086;-52
2021/04/22 00:06:04;;;;;;;34.63;21.62;;;;;;;3.74;77.30;94483.37;1765836;81;21202;-51
2021/04/22 00:08:32;;;;;;;26.48;17.98;;;;;;;3.73;77.44;94477.72;1766422;81;21202;-53
2021/04/22 00:11:00;;;;;;;28.00;20.68;;;;;;;3.72;77.30;94476.19;1766385;81;21178;-53
2021/04/22 00:13:29;;;;;;;33.70;21.45;;;;;;;3.66;77.29;94486.59;1766393;81;21123;-52
2021/04/22 00:16:00;;;;;;;27.73;16.93;;;;;;;3.60;77.45;94483.55;1766338;80;21091;-52
2021/04/22 00:18:29;;;;;;;36.93;21.73;;;;;;;3.56;77.39;94482.84;1766366;81;21077;-53
2021/04/22 00:20:57;;;;;;;26.62;16.73;;;;;;;3.57;77.48;94483.59;1766357;81;21142;-53
2021/04/22 00:23:25;;;;;;;21.15;15.08;;;;;;;3.57;77.54;94481.66;1766357;81;21204;-54
2021/04/22 00:25:54;;;;;;;21.20;15.55;;;;;;;3.56;77.40;94497.80;1766344;80;21144;-53
2021/04/22 00:28:22;;;;;;;25.52;18.62;;;;;;;3.57;77.31;94497.97;1766401;80;21138;-54
2021/04/22 00:30:50;;;;;;;28.92;18.10;;;;;;;3.57;77.21;94499.34;1766343;80;21180;-53
2021/04/22 00:33:21;;;;;;;63.10;35.33;;;;;;;3.52;77.25;94510.64;1766285;80;21063;-52
2021/04/22 00:35:49;;;;;;;65.40;35.88;;;;;;;3.45;77.50;94511.92;1766491;80;21148;-53
2021/04/22 00:38:17;;;;;;;44.98;25.85;;;;;;;3.42;77.67;94507.30;1766513;81;21075;-53
2021/04/22 00:40:47;;;;;;;31.00;18.15;;;;;;;3.38;77.70;94510.05;1766632;81;21076;-53
2021/04/22 00:43:17;;;;;;;23.60;17.80;;;;;;;3.35;77.83;94508.73;1766604;81;21087;-52
2021/04/22 00:45:46;;;;;;;26.55;17.37;;;;;;;3.33;77.68;94497.49;1766467;81;21096;-54
2021/04/22 00:48:17;;;;;;;32.35;21.75;;;;;;;3.31;77.67;94495.20;1766679;81;21509;-53
2021/04/22 00:50:47;;;;;;;40.25;24.43;;;;;;;3.33;77.72;94502.36;1766676;80;21082;-52
2021/04/22 00:53:17;;;;;;;41.58;24.57;;;;;;;3.34;77.65;94504.47;1766580;81;21077;-53
2021/04/22 00:55:45;;;;;;;51.42;30.90;;;;;;;3.39;77.75;94495.89;1766575;81;21071;-51
2021/04/22 00:58:13;;;;;;;41.88;23.70;;;;;;;3.42;77.46;94500.50;1766315;81;21134;-52
2021/04/22 01:00:46;;;;;;;29.30;20.20;;;;;;;3.42;77.39;94499.15;1766705;81;22225;-53
2021/04/22 01:03:14;;;;;;;29.80;18.42;;;;;;;3.41;77.00;94498.97;1766299;80;21091;-51
2021/04/22 01:05:47;;;;;;;24.95;16.62;;;;;;;3.39;76.75;94498.00;1766564;80;21115;-52
2021/04/22 01:08:14;;;;;;;;;;;;;;;3.29;76.46;94500.85;1769226;81;21067;-53
2021/04/22 01:10:44;;;;;;;44.60;24.07;;;;;;;3.19;76.75;94496.30;1766480;80;20218;-52
2021/04/22 01:13:12;;;;;;;35.68;22.10;;;;;;;3.17;77.04;94515.75;1766562;81;21245;-53
2021/04/22 01:15:40;;;;;;;55.58;30.62;;;;;;;3.11;77.20;94515.23;1766484;81;21159;-54
2021/04/22 01:18:08;;;;;;;65.90;35.58;;;;;;;3.00;77.46;94509.12;1766555;81;21079;-54
2021/04/22 01:20:44;;;;;;;52.60;30.55;;;;;;;2.98;78.05;94510.12;1766510;81;21107;-52
2021/04/22 01:23:12;;;;;;;38.83;24.40;;;;;;;3.03;77.91;94520.57;1766526;81;21152;-55
2021/04/22 01:25:47;;;;;;;31.80;20.23;;;;;;;3.00;77.68;94517.28;1766670;80;22106;-53
2021/04/22 01:28:17;;;;;;;39.10;21.62;;;;;;;3.02;77.79;94519.03;1766537;81;21086;-53
2021/04/22 01:30:50;;;;;;;29.27;18.07;;;;;;;3.04;77.84;94509.88;1766587;81;21079;-58
2021/04/22 01:33:25;;;;;;;27.42;17.70;;;;;;;3.07;77.98;94509.07;1766597;81;21075;-53
2021/04/22 01:35:56;;;;;;;33.40;19.85;;;;;;;3.12;78.21;94505.90;1766614;81;21171;-53
2021/04/22 01:38:25;;;;;;;44.05;26.17;;;;;;;3.21;78.21;94496.69;1766682;81;21206;-53
2021/04/22 01:40:53;;;;;;;48.23;28.10;;;;;;;3.24;77.83;94504.02;1766537;81;21128;-53
2021/04/22 01:43:22;;;;;;;50.35;27.62;;;;;;;3.18;77.71;94509.12;1766605;81;21192;-53
2021/04/22 01:45:50;;;;;;;51.60;28.07;;;;;;;3.15;77.79;94509.16;1766529;81;21123;-52
2021/04/22 01:48:18;;;;;;;54.10;30.12;;;;;;;3.16;78.03;94510.70;1766487;81;21060;-52
2021/04/22 01:50:46;;;;;;;61.75;29.05;;;;;;;3.11;77.97;94509.22;1766561;81;21206;-52
2021/04/22 01:53:14;;;;;;;60.48;29.95;;;;;;;3.13;78.10;94512.87;1766502;81;21044;-52
2021/04/22 01:55:45;;;;;;;71.42;31.12;;;;;;;3.13;78.27;94504.72;1766533;80;21162;-53
2021/04/22 01:58:16;;;;;;;42.98;26.30;;;;;;;3.21;78.50;94503.48;1758331;81;21140;-53
2021/04/22 02:00:55;;;;;;;45.17;25.10;;;;;;;3.36;78.62;94503.47;1749347;81;21100;-52
2021/04/22 02:03:24;;;;;;;38.38;23.27;;;;;;;3.47;78.21;94495.39;1749500;82;21188;-53
2021/04/22 02:05:52;;;;;;;44.93;27.20;;;;;;;3.56;77.86;94496.44;1749431;82;21158;-54
2021/04/22 02:08:19;;;;;;;48.17;26.62;;;;;;;3.53;77.80;94492.39;1749469;82;21087;-51
2021/04/22 02:10:47;;;;;;;47.70;24.98;;;;;;;3.56;78.01;94490.21;1749455;81;21076;-52
2021/04/22 02:13:17;;;;;;;43.52;24.65;;;;;;;3.64;77.76;94492.43;1749450;82;21076;-53
2021/04/22 02:15:47;;;;;;;47.10;23.98;;;;;;;3.63;77.64;94490.89;1749458;82;21265;-52
2021/04/22 02:18:15;;;;;;;39.27;25.08;;;;;;;3.66;77.79;94489.31;1749457;82;21112;-51
2021/04/22 02:20:43;;;;;;;45.75;27.17;;;;;;;3.72;77.56;94474.83;1749520;82;21124;-54
2021/04/22 02:23:18;;;;;;;53.33;26.60;;;;;;;3.78;77.53;94475.92;1749535;82;21174;-53
2021/04/22 02:25:47;;;;;;;44.45;27.73;;;;;;;3.87;77.04;94477.53;1749506;81;21076;-51
2021/04/22 02:28:16;;;;;;;43.50;27.13;;;;;;;3.84;76.76;94487.88;1749506;82;21144;-52
2021/04/22 02:30:46;;;;;;;42.65;24.77;;;;;;;3.84;77.03;94483.04;1749384;82;21100;-52
2021/04/22 02:33:18;;;;;;;36.28;22.25;;;;;;;3.92;76.81;94478.45;1749483;82;21092;-53
2021/04/22 02:35:48;;;;;;;33.15;21.37;;;;;;;3.94;76.30;94480.16;1749698;82;21521;-53
2021/04/22 02:38:16;;;;;;;26.77;19.30;;;;;;;3.90;76.08;94485.47;1749448;82;21076;-51
2021/04/22 02:40:45;;;;;;;29.77;20.12;;;;;;;3.85;76.05;94496.22;1749455;81;21201;-52
2021/04/22 02:43:16;;;;;;;35.73;20.90;;;;;;;3.83;76.25;94482.86;1749493;81;21128;-51
2021/04/22 02:45:49;;;;;;;29.20;18.20;;;;;;;3.86;76.15;94477.34;1749558;81;21566;-52
2021/04/22 02:48:18;;;;;;;30.20;19.07;;;;;;;3.89;76.08;94473.05;1749499;81;21092;-52
2021/04/22 02:50:49;;;;;;;34.67;19.85;;;;;;;3.91;75.91;94470.08;1749494;82;21056;-53
2021/04/22 02:53:16;;;;;;;53.17;26.45;;;;;;;3.96;75.95;94470.21;1749504;82;21205;-52
2021/04/22 02:55:45;;;;;;;55.00;28.92;;;;;;;4.03;75.65;94468.77;1749390;82;21091;-54
2021/04/22 02:58:15;;;;;;;53.05;28.98;;;;;;;4.00;75.43;94463.55;1752465;80;21095;-57
2021/04/22 03:00:44;;;;;;;47.25;23.70;;;;;;;3.98;75.89;94472.71;1760019;80;21123;-56
2021/04/22 03:03:12;;;;;;;84.77;41.05;;;;;;;4.01;75.53;94480.05;1759807;81;21134;-56
2021/04/22 03:05:41;;;;;;;51.95;28.32;;;;;;;3.99;75.80;94475.61;1759882;81;21205;-56
2021/04/22 03:08:09;;;;;;;46.30;27.40;;;;;;;4.00;75.39;94477.15;1759833;81;21083;-55
2021/04/22 03:10:38;;;;;;;45.38;25.45;;;;;;;3.87;75.38;94483.58;1759882;81;21148;-55
2021/04/22 03:13:06;;;;;;;40.05;23.92;;;;;;;3.70;75.54;94482.63;1759887;81;21080;-56
2021/04/22 03:15:34;;;;;;;41.25;26.05;;;;;;;3.64;76.08;94474.75;1759855;81;21076;-53
2021/04/22 03:18:03;;;;;;;43.15;26.95;;;;;;;3.71;76.26;94479.33;1759883;81;21449;-54
2021/04/22 03:20:32;;;;;;;61.88;30.80;;;;;;;3.77;76.03;94477.11;1759827;80;21159;-55
2021/04/22 03:23:00;;;;;;;50.30;29.27;;;;;;;3.84;75.89;94476.23;1759974;81;21568;-53
2021/04/22 03:25:28;;;;;;;71.65;32.25;;;;;;;3.87;75.53;94478.89;1759860;80;21067;-57
2021/04/22 03:27:56;;;;;;;108.47;47.48;;;;;;;3.83;75.37;94479.53;1759906;80;21516;-58
2021/04/22 03:30:27;;;;;;;82.97;39.40;;;;;;;3.83;75.61;94483.62;1759769;81;21434;-55
2021/04/22 03:32:55;;;;;;;60.33;34.90;;;;;;;3.91;75.57;94486.41;1759856;81;21071;-53
2021/04/22 03:35:23;;;;;;;64.30;38.40;;;;;;;3.99;75.54;94489.22;1759850;81;21107;-54
2021/04/22 03:37:51;;;;;;;65.90;36.93;;;;;;;4.04;75.21;94484.66;1759849;81;21147;-53
2021/04/22 03:40:22;;;;;;;55.25;35.17;;;;;;;4.08;75.54;94484.63;1759866;81;21147;-54
2021/04/22 03:42:50;;;;;;;61.58;34.78;;;;;;;4.17;75.20;94481.55;1759803;80;21210;-54
2021/04/22 03:45:20;;;;;;;72.32;44.33;;;;;;;4.25;75.00;94486.30;1759820;81;21083;-53
2021/04/22 03:47:47;;;;;;;89.58;56.75;;;;;;;4.26;74.61;94492.67;1759866;81;21083;-53
2021/04/22 03:50:17;;;;;;;70.80;42.45;;;;;;;4.28;74.55;94490.31;1759846;81;21105;-55
2021/04/22 03:52:45;;;;;;;77.82;49.05;;;;;;;4.32;74.49;94492.41;1759886;81;21087;-53
2021/04/22 03:55:15;;;;;;;84.62;54.08;;;;;;;4.38;74.60;94498.16;1759778;80;21200;-54
2021/04/22 03:57:42;;;;;;;86.25;48.45;;;;;;;4.44;74.29;94499.97;1759722;81;21159;-55
2021/04/22 04:00:15;;;;;;;62.40;34.75;;;;;;;4.47;74.27;94499.17;1759825;81;21187;-55
2021/04/22 04:02:42;;;;;;;86.32;44.23;;;;;;;4.54;74.38;94500.41;1760021;80;21131;-53
2021/04/22 04:05:12;;;;;;;74.92;41.85;;;;;;;4.64;74.03;94498.08;1759822;81;21150;-55
2021/04/22 04:07:40;;;;;;;53.50;35.05;;;;;;;4.70;73.94;94493.72;1759884;81;21199;-54
2021/04/22 04:10:09;;;;;;;76.95;36.25;;;;;;;4.79;73.66;94489.84;1759767;81;21152;-55
2021/04/22 04:12:37;;;;;;;52.08;32.88;;;;;;;4.82;73.63;94489.01;1759881;81;21476;-54
2021/04/22 04:15:07;;;;;;;57.50;33.95;;;;;;;4.88;73.37;94488.73;1759847;81;21084;-54
2021/04/22 04:17:35;;;;;;;63.45;37.42;;;;;;;4.94;73.32;94492.50;1759827;81;21088;-54
2021/04/22 04:20:07;;;;;;;69.72;42.00;;;;;;;4.91;72.85;94501.52;1759845;81;21258;-54
2021/04/22 04:22:35;;;;;;;57.33;31.37;;;;;;;4.77;72.74;94501.75;1759875;81;21216;-55
2021/04/22 04:25:05;;;;;;;76.25;34.50;;;;;;;4.58;73.31;94515.34;1759906;81;21557;-53
2021/04/22 04:27:33;;;;;;;72.50;42.35;;;;;;;4.50;73.62;94518.77;1759829;81;21143;-54
2021/04/22 04:30:01;;;;;;;91.02;53.35;;;;;;;4.44;73.95;94520.40;1759827;81;21115;-55
2021/04/22 04:32:29;;;;;;;133.80;77.22;;;;;;;4.43;73.95;94518.11;1759845;81;21313;-55
2021/04/22 04:34:57;;;;;;;111.17;59.48;;;;;;;4.45;74.32;94524.66;1759673;81;21088;-55
2021/04/22 04:37:25;;;;;;;84.47;49.88;;;;;;;4.53;74.28;94517.94;1759811;80;21088;-54
2021/04/22 04:39:53;;;;;;;86.02;51.35;;;;;;;4.54;74.56;94518.11;1759780;81;21127;-55
2021/04/22 04:42:22;;;;;;;84.67;47.75;;;;;;;4.65;74.79;94517.94;1759863;81;21107;-55
2021/04/22 04:44:50;;;;;;;87.78;44.95;;;;;;;4.80;74.80;94521.96;1759827;81;21205;-55
2021/04/22 04:47:18;;;;;;;96.70;43.28;;;;;;;4.95;74.75;94509.63;1759686;81;21095;-55
2021/04/22 04:49:47;;;;;;;54.65;31.07;;;;;;;5.13;74.52;94527.20;1749079;81;21741;-55
2021/04/22 04:52:14;;;;;;;42.62;26.00;;;;;;;5.29;73.99;94517.74;1759816;81;21075;-55
2021/04/22 04:54:43;;;;;;;57.85;31.77;;;;;;;5.30;73.64;94524.16;1759780;81;21142;-56
2021/04/22 04:57:11;;;;;;;48.85;30.95;;;;;;;5.31;73.53;94514.00;1759741;81;21175;-55
2021/04/22 04:59:39;;;;;;;65.50;34.88;;;;;;;5.43;73.70;94514.75;1750530;80;21177;-56
2021/04/22 05:02:07;;;;;;;62.58;33.65;;;;;;;5.56;73.34;94518.36;1719585;81;21109;-55
2021/04/22 05:04:36;;;;;;;72.20;41.37;;;;;;;5.65;73.08;94513.13;1739256;80;21066;-56
2021/04/22 05:07:03;;;;;;;59.63;35.10;;;;;;;5.69;72.99;94511.09;1713277;81;21258;-57
2021/04/22 05:09:32;;;;;;;66.12;39.45;;;;;;;5.72;72.88;94515.70;1754745;81;21279;-57
2021/04/22 05:12:00;;;;;;;60.65;40.80;;;;;;;5.73;73.08;94501.64;1748290;80;21184;-55
2021/04/22 05:14:28;;;;;;;67.15;39.70;;;;;;;5.88;72.96;94511.11;1739978;81;21070;-59
2021/04/22 05:16:56;;;;;;;58.33;35.95;;;;;;;6.04;72.68;94514.45;1729104;81;21172;-55
2021/04/22 05:19:24;;;;;;;65.75;34.23;;;;;;;6.05;72.48;94503.71;1730772;80;21183;-56
2021/04/22 05:21:53;;;;;;;63.00;34.53;;;;;;;6.02;72.41;94501.83;1719702;81;21578;-58
2021/04/22 05:24:21;;;;;;;61.02;33.05;;;;;;;5.97;72.43;94502.34;1753049;80;21927;-59
2021/04/22 05:26:49;;;;;;;45.45;27.95;;;;;;;5.95;72.45;94505.48;1759312;80;21156;-57
2021/04/22 05:29:17;;;;;;;41.10;26.35;;;;;;;5.96;72.65;94493.37;1751081;80;21228;-60
2021/04/22 05:31:46;;;;;;;45.78;27.75;;;;;;;6.03;72.66;94501.42;1748692;80;21570;-55
2021/04/22 05:34:15;;;;;;;52.43;30.60;;;;;;;6.08;72.43;94497.40;1753791;80;21443;-57
2021/04/22 05:36:44;;;;;;;42.58;28.55;;;;;;;6.14;72.52;94488.89;1756108;80;21201;-60
2021/04/22 05:39:12;;;;;;;62.13;36.98;;;;;;;6.25;72.29;94496.23;1763368;80;21134;-56
2021/04/22 05:41:40;;;;;;;70.40;39.40;;;;;;;6.22;72.05;94488.89;1760613;80;21194;-58
2021/04/22 05:44:09;;;;;;;64.65;38.78;;;;;;;6.23;72.29;94494.52;1766684;80;21201;-58
2021/04/22 05:46:40;;;;;;;67.47;42.30;;;;;;;6.32;72.07;94486.52;1757370;80;21397;-58
2021/04/22 05:49:08;;;;;;;53.23;36.35;;;;;;;6.34;72.12;94484.13;1760719;80;21070;-57
2021/04/22 05:51:38;;;;;;;55.80;37.53;;;;;;;6.35;71.90;94480.20;1762305;79;22220;-58
2021/04/22 05:54:08;;;;;;;53.28;33.15;;;;;;;6.33;71.87;94490.79;1760268;80;21190;-60
2021/04/22 05:56:38;;;;;;;52.70;36.65;;;;;;;6.35;71.95;94482.33;1763018;80;21224;-59
2021/04/22 05:59:05;;;;;;;61.50;40.98;;;;;;;6.42;71.83;94483.53;1752801;80;21645;-58
2021/04/22 06:01:34;;;;;;;88.50;47.40;;;;;;;6.46;71.80;94484.80;1744063;80;21214;-65
2021/04/22 06:04:03;;;;;;;94.70;53.50;;;;;;;6.46;71.86;94484.80;1748334;81;21193;-60
2021/04/22 06:06:31;;;;;;;77.22;44.65;;;;;;;6.51;71.95;94485.06;1792528;79;21132;-56
2021/04/22 06:08:59;;;;;;;87.62;50.63;;;;;;;6.57;71.81;94478.49;1780993;79;21128;-58
2021/04/22 06:11:27;;;;;;;79.35;46.90;;;;;;;6.56;71.69;94483.78;1796725;79;22300;-58
2021/04/22 06:13:55;;;;;;;107.07;72.10;;;;;;;6.56;71.75;94483.17;1748002;80;21230;-57
2021/04/22 06:16:25;;;;;;;104.75;76.77;;;;;;;6.62;71.95;94484.22;1742385;81;21217;-63
2021/04/22 06:18:53;;;;;;;82.75;54.73;;;;;;;6.72;72.17;94481.05;1720879;81;21232;-58
2021/04/22 06:21:21;;;;;;;73.28;51.55;;;;;;;6.84;72.10;94474.86;1733412;81;21209;-59
2021/04/22 06:23:52;;;;;;;65.47;38.25;;;;;;;6.98;71.89;94471.77;1736744;81;21239;-55
2021/04/22 06:26:22;;;;;;;45.43;28.98;;;;;;;7.13;71.70;94470.98;1719707;81;21276;-57
2021/04/22 06:28:50;;;;;;;77.35;38.88;;;;;;;7.25;71.56;94469.66;1749651;81;21166;-56
2021/04/22 06:31:19;;;;;;;69.20;42.98;;;;;;;7.44;71.12;94467.37;1750524;81;21189;-57
2021/04/22 06:33:47;;;;;;;94.07;47.00;;;;;;;7.55;70.61;94465.09;1748530;81;21189;-60
2021/04/22 06:36:17;;;;;;;79.10;48.42;;;;;;;7.55;70.50;94462.35;1743671;80;22133;-59
2021/04/22 06:38:46;;;;;;;80.25;45.75;;;;;;;7.53;70.53;94456.55;1747572;81;21188;-56
2021/04/22 06:41:15;;;;;;;74.00;43.02;;;;;;;7.66;70.37;94464.81;1746402;80;21630;-60
2021/04/22 06:43:44;;;;;;;68.20;41.70;;;;;;;7.82;70.24;94461.38;1741773;81;21629;-58
2021/04/22 06:46:12;;;;;;;73.22;44.93;;;;;;;8.03;69.78;94462.73;1744420;81;21177;-60
2021/04/22 06:48:42;;;;;;;83.67;46.40;;;;;;;8.30;69.50;94464.45;1746918;80;21247;-58
2021/04/22 06:51:12;;;;;;;78.45;43.45;;;;;;;8.54;69.22;94456.81;1793339;79;21191;-60
2021/04/22 06:53:41;;;;;;;63.63;38.65;;;;;;;8.82;69.26;94462.73;1776900;79;21178;-60
2021/04/22 06:56:11;;;;;;;80.32;45.90;;;;;;;9.13;68.66;94463.05;1798463;79;21150;-64
2021/04/22 06:58:39;;;;;;;76.33;43.00;;;;;;;9.43;68.54;94454.75;1799529;78;21163;-61
2021/04/22 07:01:07;;;;;;;47.40;27.77;;;;;;;9.74;67.87;94461.83;1788609;77;21362;-62
2021/04/22 07:03:38;;;;;;;51.50;30.52;;;;;;;9.99;67.60;94460.91;1782523;78;21176;-63
2021/04/22 07:06:07;;;;;;;48.68;24.98;;;;;;;10.23;67.05;94461.97;1791562;78;21104;-63
2021/04/22 07:08:36;;;;;;;39.40;26.15;;;;;;;10.50;66.14;94457.97;1783779;78;21196;-58
2021/04/22 07:11:04;;;;;;;40.52;24.12;;;;;;;10.76;65.84;94459.41;1776567;78;22287;-63
2021/04/22 07:13:36;;;;;;;50.98;24.72;;;;;;;11.00;65.36;94456.24;1792007;78;22315;-62
2021/04/22 07:16:07;;;;;;;40.75;26.20;;;;;;;11.27;65.06;94454.13;1785254;78;21184;-57
2021/04/22 07:18:37;;;;;;;39.42;25.45;;;;;;;11.57;64.44;94454.00;1778032;78;21645;-65
2021/04/22 07:21:06;;;;;;;41.95;24.63;;;;;;;11.84;63.54;94449.86;1734266;81;21168;-62
2021/04/22 07:23:41;;;;;;;34.78;22.93;;;;;;;12.10;62.58;94457.16;1775135;80;21262;-60
2021/04/22 07:26:10;;;;;;;53.48;36.35;;;;;;;12.28;60.74;94444.06;1788009;78;21193;-61
2021/04/22 07:28:39;;;;;;;40.00;22.32;;;;;;;12.44;60.20;94454.73;1784313;78;21126;-61
2021/04/22 07:31:10;;;;;;;26.20;16.12;;;;;;;12.64;57.89;94460.48;1771978;78;21124;-59
2021/04/22 07:33:41;;;;;;;21.30;15.32;;;;;;;12.90;54.08;94451.93;1778921;79;21183;-60
2021/04/22 07:36:12;;;;;;;;;;;;;;;13.17;52.43;94449.02;1776656;79;21183;-59
2021/04/22 07:38:40;;;;;;;28.40;17.67;;;;;;;13.46;52.54;94454.66;1771762;78;21257;-58
2021/04/22 07:41:11;;;;;;;21.48;15.35;;;;;;;13.70;50.28;94455.37;1787225;78;21995;-57
2021/04/22 07:43:39;;;;;;;22.10;13.90;;;;;;;13.86;48.89;94455.70;1790004;78;21559;-59
2021/04/22 07:46:08;;;;;;;40.67;25.57;;;;;;;13.97;48.26;94462.05;1731179;80;21157;-58
2021/04/22 07:48:37;;;;;;;28.85;18.02;;;;;;;14.03;48.27;94460.14;1711250;81;21625;-58
2021/04/22 07:51:06;;;;;;;18.65;14.98;;;;;;;14.12;48.44;94457.27;1734967;81;22265;-59
2021/04/22 07:53:35;;;;;;;39.18;16.77;;;;;;;14.20;48.26;94458.47;1758111;81;21230;-59
2021/04/22 07:56:05;;;;;;;25.60;12.88;;;;;;;14.28;48.19;94454.84;1791390;78;21719;-59
2021/04/22 07:58:33;;;;;;;36.17;14.28;;;;;;;14.32;48.07;94456.04;1768872;78;21151;-60
2021/04/22 08:01:01;;;;;;;35.80;16.20;;;;;;;14.38;47.61;94461.03;1806943;77;21192;-60
2021/04/22 08:03:30;;;;;;;16.95;13.03;;;;;;;14.42;47.98;94471.29;1758543;79;21249;-59
2021/04/22 08:05:58;;;;;;;51.92;13.38;;;;;;;14.45;46.84;94455.24;1726041;81;21186;-59
2021/04/22 08:08:27;;;;;;;25.75;13.08;;;;;;;14.52;47.25;94461.80;1749055;80;21177;-58
2021/04/22 08:10:55;;;;;;;59.83;15.68;;;;;;;14.64;46.77;94464.11;1735164;80;21198;-57
2021/04/22 08:13:24;;;;;;;78.72;16.30;;;;;;;14.70;46.82;94471.88;1761652;80;21195;-58
2021/04/22 08:15:54;;;;;;;34.78;14.25;;;;;;;14.78;47.12;94461.31;1765177;80;21223;-55
2021/04/22 08:18:25;;;;;;;17.02;12.33;;;;;;;14.88;46.05;94472.43;1762690;80;21226;-62
2021/04/22 08:20:56;;;;;;;18.20;12.40;;;;;;;14.95;44.25;94460.94;1766067;80;21640;-63
2021/04/22 08:23:28;;;;;;;20.72;15.35;;;;;;;15.00;44.37;94464.41;1749626;80;21150;-59
2021/04/22 08:25:58;;;;;;;19.00;13.15;;;;;;;15.09;44.08;94453.21;1751721;80;21133;-62
2021/04/22 08:28:27;;;;;;;30.27;12.25;;;;;;;15.16;44.28;94461.11;1754025;80;22089;-58
2021/04/22 08:30:59;;;;;;;23.25;13.48;;;;;;;15.28;44.90;94464.17;1747197;80;21925;-61
2021/04/22 08:33:31;;;;;;;30.80;13.78;;;;;;;15.37;44.22;94463.31;1757287;80;21172;-65
2021/04/22 08:35:59;;;;;;;17.00;10.80;;;;;;;15.40;44.17;94456.16;1731159;80;21155;-63
2021/04/22 08:38:27;;;;;;;15.63;11.90;;;;;;;15.36;44.71;94455.61;1734325;80;21178;-59
2021/04/22 08:40:55;;;;;;;18.10;12.45;;;;;;;15.41;44.12;94465.25;1747626;80;21907;-63
2021/04/22 08:43:23;;;;;;;17.30;10.50;;;;;;;15.48;43.37;94471.15;1744757;80;21213;-58
2021/04/22 08:45:51;;;;;;;34.25;12.65;;;;;;;15.56;43.70;94470.86;1741181;80;21251;-60
2021/04/22 08:48:19;;;;;;;21.55;11.90;;;;;;;15.59;43.78;94474.68;1755030;80;21888;-61
2021/04/22 08:50:50;;;;;;;15.45;11.35;;;;;;;15.56;42.71;94477.78;1758117;80;21194;-60
2021/04/22 08:53:22;;;;;;;13.60;11.70;;;;;;;15.55;42.80;94469.33;1766366;80;21344;-60
2021/04/22 08:55:50;;;;;;;16.95;11.83;;;;;;;15.57;42.97;94474.41;1737044;80;21178;-61
2021/04/22 08:58:18;;;;;;;19.20;11.10;;;;;;;15.61;42.61;94467.41;1755544;78;21744;-61
2021/04/22 09:01:00;;;;;;;18.57;11.45;;;;;;;15.61;42.82;94467.41;1713251;82;21735;-64
2021/04/22 09:03:28;;;;;;;26.25;11.25;;;;;;;15.63;42.97;94464.91;1727138;81;21684;-63
2021/04/22 09:05:56;;;;;;;28.92;11.48;;;;;;;15.72;42.57;94466.78;1737035;80;21197;-62
2021/04/22 09:08:39;;;;;;;17.20;9.20;;;;;;;15.81;42.57;94463.84;1735097;80;21216;-57
2021/04/22 09:11:08;;;;;;;13.00;9.70;;;;;;;15.95;42.47;94472.06;1740166;82;21201;-61
2021/04/22 09:13:36;;;;;;;17.15;9.65;;;;;;;16.06;40.70;94474.97;1740297;80;21590;-62
2021/04/22 09:16:12;;;;;;;15.35;9.80;;;;;;;16.12;40.82;94463.94;1710631;82;21491;-59
2021/04/22 09:18:49;;;;;;;17.67;9.28;;;;;;;16.07;40.93;94467.42;1739101;82;22874;-64
2021/04/22 09:21:30;;;;;;;14.00;9.78;;;;;;;16.06;40.98;94464.52;1738636;80;21205;-61
2021/04/22 09:24:14;;;;;;;12.88;9.48;;;;;;;16.04;40.90;94455.28;1739848;82;21173;-61
2021/04/22 09:26:48;;;;;;;16.05;9.00;;;;;;;15.98;41.03;94460.63;1739835;80;21956;-60
2021/04/22 09:29:19;;;;;;;11.65;8.98;;;;;;;15.92;41.80;94467.50;1740916;82;21637;-60
2021/04/22 09:31:47;;;;;;;11.43;8.30;;;;;;;15.97;41.42;94475.14;1749124;80;22020;-62
2021/04/22 09:34:16;;;;;;;10.08;8.10;;;;;;;16.06;40.08;94455.55;1743593;82;21170;-62
2021/04/22 09:36:52;;;;;;;14.68;9.93;;;;;;;16.12;41.13;94445.25;1733802;81;21200;-60
2021/04/22 09:39:25;;;;;;;14.43;9.20;;;;;;;16.29;41.35;94456.67;1728810;81;22263;-61
2021/04/22 09:41:59;;;;;;;20.55;10.72;;;;;;;16.45;40.69;94462.27;1739166;81;21595;-63
2021/04/22 09:44:27;;;;;;;12.23;9.10;;;;;;;16.47;38.90;94447.25;1722438;81;21526;-61
2021/04/22 09:47:13;;;;;;;37.75;11.50;;;;;;;16.46;39.16;94449.28;1745868;80;21131;-59
2021/04/22 09:52:38;;;;;;;27.45;9.90;;;;;;;16.59;39.36;94453.83;1859721;75;23277;-61
2021/04/22 09:55:11;;;;;;;36.33;6.92;;;;;;;16.41;39.16;94475.61;1802630;76;22054;-60
2021/04/22 09:57:39;;;;;;;12.55;6.12;;;;;;;16.02;42.43;94554.13;1826064;76;21221;-60
2021/04/22 10:00:14;;;;;;;7.58;6.60;;;;;;;15.23;45.21;94495.36;1837667;76;21686;-63
2021/04/22 10:02:55;;;;;;;10.75;7.67;;;;;;;14.54;46.85;94497.28;1837005;76;21162;-60
2021/04/22 10:05:26;;;;;;;12.28;9.10;;;;;;;14.11;49.70;94494.47;1818518;76;21177;-60
2021/04/22 10:08:13;;;;;;;7.85;5.92;;;;;;;13.92;50.50;94483.43;1743268;80;21149;-62
2021/04/22 10:11:03;;;;;;;7.05;6.35;;;;;;;13.90;49.70;94473.47;1700757;82;21664;-60
2021/04/22 10:13:44;;;;;;;8.45;7.65;;;;;;;14.00;50.50;94461.09;1736754;80;21211;-61
2021/04/22 10:16:13;;;;;;;8.13;6.60;;;;;;;14.16;47.19;94457.89;1762019;80;21183;-62
2021/04/22 10:18:43;;;;;;;8.20;6.80;;;;;;;14.30;47.75;94441.28;1740764;80;39880;-62
2021/04/22 10:21:15;;;;;;;8.85;6.47;;;;;;;14.51;46.12;94446.43;1746915;81;21231;-61
2021/04/22 10:23:46;;;;;;;15.48;6.70;;;;;;;14.78;46.51;94440.54;1736513;80;21260;-61
2021/04/22 10:26:20;;;;;;;6.92;6.05;;;;;;;15.01;46.67;94429.91;1716288;82;21228;-60
2021/04/22 10:28:49;;;;;;;7.72;6.22;;;;;;;15.41;45.73;94426.44;1695804;82;21222;-63
2021/04/22 10:31:20;;;;;;;7.03;6.33;;;;;;;16.00;45.53;94421.44;1734950;81;21145;-63
2021/04/22 10:33:49;;;;;;;10.15;6.75;;;;;;;16.70;42.56;94412.87;1742564;82;21149;-64
2021/04/22 10:36:20;;;;;;;8.35;7.17;;;;;;;17.44;42.90;94417.87;1743342;82;21566;-60
2021/04/22 10:38:52;;;;;;;10.00;7.22;;;;;;;18.16;39.72;94418.11;1732780;82;21134;-58
2021/04/22 10:41:22;;;;;;;6.62;5.17;;;;;;;18.75;37.72;94417.41;1748012;80;21173;-63
2021/04/22 10:43:50;;;;;;;14.93;7.17;;;;;;;19.18;36.05;94417.25;1699134;81;21178;-61
2021/04/22 10:46:20;;;;;;;9.85;6.45;;;;;;;19.56;35.72;94406.61;1751138;80;21126;-59
2021/04/22 10:48:49;;;;;;;18.98;7.15;;;;;;;19.92;33.76;94408.22;1750693;80;22534;-73
2021/04/22 10:51:18;;;;;;;16.67;9.80;;;;;;;20.14;33.65;94399.74;1754356;80;21158;-63
2021/04/22 10:53:46;;;;;;;11.63;6.35;;;;;;;19.98;34.16;94401.99;1727718;81;21195;-59
2021/04/22 10:56:28;;;;;;;20.72;9.85;;;;;;;19.70;33.79;94398.56;1729653;81;21139;-61
2021/04/22 10:58:57;;;;;;;25.40;6.47;;;;;;;19.15;34.16;94412.66;1734852;81;21615;-60
2021/04/22 11:01:36;;;;;;;12.63;6.42;;;;;;;18.48;35.21;94409.80;1729448;82;21426;-66
2021/04/22 11:04:08;;;;;;;9.23;6.85;;;;;;;17.94;36.89;94408.30;1733134;82;21151;-64
2021/04/22 11:06:41;;;;;;;11.90;6.53;;;;;;;17.64;37.28;94410.00;1736238;82;21175;-72
2021/04/22 11:09:16;;;;;;;28.23;5.85;;;;;;;17.40;37.72;94417.97;1729582;82;21150;-66
2021/04/22 11:12:02;;;;;;;6.80;5.42;;;;;;;16.93;39.30;94435.38;1718761;82;21162;-62
2021/04/22 11:14:45;;;;;;;14.63;6.30;;;;;;;16.15;41.14;94452.63;1728933;82;22336;-60
2021/04/22 11:17:15;;;;;;;13.20;4.72;;;;;;;15.36;43.22;94466.70;1718609;82;21175;-61
2021/04/22 11:19:46;;;;;;;14.23;8.55;;;;;;;14.78;44.63;94459.92;1703734;82;22220;-62
2021/04/22 11:22:25;;;;;;;11.80;7.00;;;;;;;14.34;46.15;94470.16;1720739;81;21142;-62
2021/04/22 11:25:03;;;;;;;9.80;6.42;;;;;;;13.99;47.00;94474.14;1667926;82;21133;-61
2021/04/22 11:27:35;;;;;;;10.95;6.67;;;;;;;13.70;47.99;94485.78;1721350;81;22546;-59
2021/04/22 11:30:09;;;;;;;9.13;5.83;;;;;;;13.45;49.25;94489.05;1720574;82;22249;-64
2021/04/22 11:32:42;;;;;;;7.47;5.58;;;;;;;13.21;50.72;94481.36;1708446;82;21158;-64
2021/04/22 11:35:15;;;;;;;5.42;4.83;;;;;;;12.97;52.02;94486.12;1722586;82;21198;-64
2021/04/22 11:37:49;;;;;;;12.55;7.08;;;;;;;12.69;53.97;94492.35;1706842;81;21214;-63
2021/04/22 11:40:24;;;;;;;6.70;5.90;;;;;;;12.42;56.45;94485.42;1729290;82;21379;-60